createdAt,value
2018-10-01T03:14:29.941Z,84.82
2018-10-01T03:15:29.731Z,84.16
2018-10-01T03:16:29.715Z,85.30
2018-10-01T03:17:29.744Z,85.11
2018-10-01T03:18:29.733Z,84.82
2018-10-01T03:19:29.715Z,85.77
2018-10-01T03:20:29.686Z,84.53
2018-10-01T03:21:29.711Z,84.82
2018-10-01T03:22:29.672Z,85.77
2018-10-01T03:23:29.678Z,85.87
2018-10-01T03:24:29.667Z,85.97
2018-10-01T03:25:29.657Z,86.25
2018-10-01T03:26:29.656Z,85.97
2018-10-01T03:27:29.655Z,85.11
2018-10-01T03:28:29.672Z,85.77
2018-10-01T03:29:29.637Z,85.11
2018-10-01T03:30:29.627Z,84.97
2018-10-01T03:31:29.633Z,86.02
2018-10-01T03:32:29.630Z,85.73
2018-10-01T03:33:29.639Z,85.25
2018-10-01T03:34:29.610Z,84.82
2018-10-01T03:35:29.618Z,85.35
2018-10-01T03:36:29.617Z,84.72
2018-10-01T03:37:29.601Z,84.82
2018-10-01T03:38:29.603Z,84.25
2018-10-01T03:39:29.591Z,84.53
2018-10-01T03:40:29.585Z,84.72
2018-10-01T03:41:29.601Z,84.44
2018-10-01T03:42:29.591Z,84.16
2018-10-01T03:43:29.593Z,84.44
2018-10-01T03:44:29.575Z,84.34
2018-10-01T03:45:29.580Z,85.97
2018-10-01T03:46:29.594Z,85.77
2018-10-01T03:47:29.567Z,85.58
2018-10-01T03:48:29.558Z,85.77
2018-10-01T03:49:29.554Z,84.82
2018-10-01T03:50:29.547Z,85.21
2018-10-01T03:51:29.571Z,85.97
2018-10-01T03:52:29.547Z,85.49
2018-10-01T03:53:29.535Z,86.16
2018-10-01T03:54:29.533Z,84.82
2018-10-01T03:55:29.540Z,83.96
2018-10-01T03:56:29.522Z,84.06
2018-10-01T03:57:29.570Z,85.30
2018-10-01T03:58:29.517Z,86.16
2018-10-01T03:59:29.518Z,86.69
2018-10-01T04:00:29.512Z,87.07
2018-10-01T04:01:29.503Z,85.97
2018-10-01T04:02:29.516Z,85.97
2018-10-01T04:03:29.497Z,84.92
2018-10-01T04:04:29.493Z,85.58
2018-10-01T04:05:38.143Z,85.68
2018-10-01T04:07:22.926Z,85.01
2018-10-01T04:08:32.454Z,85.77
2018-10-01T04:10:16.330Z,85.53
2018-10-01T04:12:45.071Z,82.19
2018-10-01T04:13:37.279Z,82.86
2018-10-01T04:15:58.482Z,84.63
2018-10-01T04:16:58.299Z,84.67
2018-10-01T04:17:58.289Z,83.34
2018-10-01T04:18:58.276Z,82.29
2018-10-01T04:19:58.284Z,83.53
2018-10-01T04:20:58.511Z,84.10
2018-10-01T04:21:58.285Z,85.58
2018-10-01T04:22:58.271Z,85.97
2018-10-01T04:23:58.264Z,85.97
2018-10-01T04:24:58.300Z,85.77
2018-10-01T04:25:58.255Z,85.30
2018-10-01T04:26:58.274Z,84.82
2018-10-01T04:27:58.253Z,86.25
2018-10-01T04:28:58.262Z,87.64
2018-10-01T04:29:58.261Z,88.59
2018-10-01T04:30:58.273Z,88.88
2018-10-01T04:31:58.239Z,88.40
2018-10-01T04:32:58.264Z,88.07
2018-10-01T04:34:06.877Z,87.49
2018-10-01T04:35:51.724Z,85.77
2018-10-01T04:38:12.695Z,85.58
2018-10-01T04:39:12.636Z,87.78
2018-10-01T04:40:12.641Z,88.12
2018-10-01T04:41:12.657Z,89.07
2018-10-01T04:42:12.653Z,88.31
2018-10-01T04:43:12.627Z,88.54
2018-10-01T04:44:12.611Z,87.30
2018-10-01T04:45:12.634Z,87.78
2018-10-01T04:46:12.607Z,88.21
2018-10-01T04:47:12.636Z,88.31
2018-10-01T04:48:12.603Z,88.64
2018-10-01T04:49:12.621Z,88.78
2018-10-01T04:50:12.629Z,86.92
2018-10-01T04:51:12.616Z,85.68
2018-10-01T04:52:12.585Z,86.54
2018-10-01T04:53:12.603Z,86.25
2018-10-01T04:54:12.601Z,85.77
2018-10-01T04:55:12.604Z,86.35
2018-10-01T04:56:12.570Z,85.01
2018-10-01T04:57:12.571Z,86.16
2018-10-01T04:58:12.604Z,86.82
2018-10-01T04:59:12.560Z,87.54
2018-10-01T05:00:12.562Z,87.49
2018-10-01T05:01:12.546Z,88.21
2018-10-01T05:02:12.602Z,88.50
2018-10-01T05:03:12.588Z,87.83
2018-10-01T05:04:12.545Z,88.88
2018-10-01T05:05:12.564Z,89.59
2018-10-01T05:06:12.621Z,89.45
2018-10-01T05:07:12.635Z,88.26
2018-10-01T05:08:12.542Z,88.64
2018-10-01T05:09:12.534Z,88.45
2018-10-01T05:10:12.537Z,88.83
2018-10-01T05:11:12.510Z,87.78
2018-10-01T05:12:12.676Z,88.73
2018-10-01T05:13:12.505Z,88.83
2018-10-01T05:14:12.498Z,88.98
2018-10-01T05:15:12.498Z,88.59
2018-10-01T05:16:12.496Z,88.40
2018-10-01T05:17:12.529Z,88.59
2018-10-01T05:18:12.511Z,87.49
2018-10-01T05:19:12.517Z,87.97
2018-10-01T05:20:12.509Z,88.83
2018-10-01T05:21:12.472Z,88.83
2018-10-01T05:22:12.481Z,88.73
2018-10-01T05:23:12.494Z,89.31
2018-10-01T05:24:12.473Z,90.03
2018-10-01T05:25:12.488Z,90.31
2018-10-01T05:26:12.482Z,89.02
2018-10-01T05:27:12.564Z,88.35
2018-10-01T05:28:12.485Z,87.49
2018-10-01T05:29:12.461Z,87.78
2018-10-01T05:30:12.438Z,88.64
2018-10-01T05:31:12.537Z,88.07
2018-10-01T05:32:12.450Z,88.26
2018-10-01T05:33:12.429Z,87.30
2018-10-01T05:34:12.430Z,86.63
2018-10-01T05:35:12.465Z,86.63
2018-10-01T05:36:12.419Z,85.77
2018-10-01T05:37:12.422Z,85.30
2018-10-01T05:38:12.435Z,84.72
2018-10-01T05:39:12.448Z,84.82
2018-10-01T05:40:12.439Z,85.77
2018-10-01T05:41:12.445Z,85.68
2018-10-01T05:42:12.426Z,85.87
2018-10-01T05:43:12.408Z,86.98
2018-10-01T05:44:12.390Z,86.25
2018-10-01T05:45:12.393Z,86.16
2018-10-01T05:46:12.442Z,85.97
2018-10-01T05:47:12.405Z,86.02
2018-10-01T05:48:12.417Z,85.97
2018-10-01T05:49:12.429Z,86.06
2018-10-01T05:50:12.369Z,85.77
2018-10-01T05:51:12.412Z,85.77
2018-10-01T05:52:12.406Z,85.30
2018-10-01T05:53:12.383Z,84.82
2018-10-01T05:54:12.357Z,84.92
2018-10-01T05:55:12.360Z,84.92
2018-10-01T05:56:12.354Z,85.01
2018-10-01T05:57:12.361Z,85.01
2018-10-01T05:58:12.438Z,84.53
2018-10-01T05:59:12.350Z,84.82
2018-10-01T06:00:12.329Z,85.30
2018-10-01T06:01:12.366Z,85.97
2018-10-01T06:02:12.325Z,85.39
2018-10-01T06:03:12.322Z,85.68
2018-10-01T06:04:12.323Z,84.92
2018-10-01T06:05:12.314Z,84.34
2018-10-01T06:06:12.323Z,83.96
2018-10-01T06:07:12.337Z,83.29
2018-10-01T06:08:12.368Z,82.82
2018-10-01T06:09:12.336Z,83.11
2018-10-01T06:10:12.322Z,83.67
2018-10-01T06:11:12.288Z,83.96
2018-10-01T06:12:12.310Z,83.20
2018-10-01T06:13:12.291Z,83.29
2018-10-01T06:14:12.285Z,83.67
2018-10-01T06:15:12.321Z,84.06
2018-10-01T06:16:12.289Z,83.87
2018-10-01T06:17:12.275Z,84.44
2018-10-01T06:18:12.281Z,84.25
2018-10-01T06:19:12.284Z,85.01
2018-10-01T06:20:12.264Z,84.92
2018-10-01T06:21:12.261Z,83.87
2018-10-01T06:22:12.256Z,83.39
2018-10-01T06:23:12.258Z,83.01
2018-10-01T06:24:12.273Z,83.29
2018-10-01T06:25:12.304Z,83.01
2018-10-01T06:26:12.272Z,82.82
2018-10-01T06:27:12.252Z,83.01
2018-10-01T06:28:12.248Z,82.91
2018-10-01T06:29:12.279Z,83.67
2018-10-01T06:30:12.226Z,83.48
2018-10-01T06:31:12.219Z,83.77
2018-10-01T06:32:12.224Z,82.24
2018-10-01T06:33:12.224Z,82.82
2018-10-01T06:34:12.214Z,82.82
2018-10-01T06:35:12.216Z,83.87
2018-10-01T06:36:12.236Z,84.44
2018-10-01T06:37:12.205Z,84.72
2018-10-01T06:38:12.213Z,84.34
2018-10-01T06:39:12.197Z,84.16
2018-10-01T06:40:12.191Z,83.96
2018-10-01T06:41:12.189Z,82.72
2018-10-01T06:42:12.248Z,82.34
2018-10-01T06:43:12.196Z,82.34
2018-10-01T06:44:12.176Z,82.72
2018-10-01T06:45:12.183Z,82.34
2018-10-01T06:46:12.178Z,82.72
2018-10-01T06:47:12.191Z,82.91
2018-10-01T06:48:12.175Z,83.01
2018-10-01T06:49:12.165Z,82.82
2018-10-01T06:50:12.208Z,82.91
2018-10-01T06:51:12.186Z,83.11
2018-10-01T06:52:12.173Z,83.01
2018-10-01T06:53:12.179Z,82.91
2018-10-01T06:54:12.141Z,83.58
2018-10-01T06:55:12.159Z,83.67
2018-10-01T06:56:12.134Z,83.48
2018-10-01T06:57:12.157Z,82.82
2018-10-01T06:58:12.133Z,82.91
2018-10-01T06:59:12.147Z,83.29
2018-10-01T07:00:12.123Z,82.82
2018-10-01T07:01:20.889Z,83.20
2018-10-01T07:03:05.563Z,83.39
2018-10-01T07:04:05.517Z,83.67
2018-10-01T07:05:05.532Z,83.20
2018-10-01T07:07:26.567Z,82.72
